Time;durP1;ratioP1;P1;durP2;ratioP2;P2;SDS_P1;SDS_P2;PMS_P1;PMS_P2;Temp;Humidity;BMP_temperature;BMP_pressure;BME280_temperature;BME280_humidity;BME280_pressure;Samples;Min_cycle;Max_cycle;Signal;HPM_P1;HPM_P2
2022/08/27 00:01:49;;;;;;;3.33;0.80;;;17.30;99.90;;;;;;4988991;28;20114;-70
2022/08/27 00:04:14;;;;;;;4.20;0.80;;;17.30;99.90;;;;;;4984455;28;20949;-72
2022/08/27 00:06:40;;;;;;;6.45;1.20;;;17.40;99.90;;;;;;4983175;28;20027;-72
2022/08/27 00:09:06;;;;;;;6.38;1.15;;;17.30;99.90;;;;;;4981255;28;20038;-70
2022/08/27 00:11:31;;;;;;;3.40;1.13;;;17.40;99.90;;;;;;4978789;28;20121;-71
2022/08/27 00:13:58;;;;;;;5.13;0.75;;;17.40;99.90;;;;;;4985469;28;20096;-71
2022/08/27 00:16:23;;;;;;;2.42;0.73;;;17.40;99.90;;;;;;4978966;28;20096;-71
2022/08/27 00:18:49;;;;;;;3.72;0.82;;;17.40;99.90;;;;;;4978993;28;20038;-71
2022/08/27 00:21:16;;;;;;;4.28;0.75;;;17.40;99.90;;;;;;4980630;28;20525;-71
2022/08/27 00:23:42;;;;;;;2.25;0.70;;;17.50;99.90;;;;;;4976015;28;20034;-71
2022/08/27 00:26:09;;;;;;;3.45;0.55;;;17.50;99.90;;;;;;4987634;28;20034;-70
2022/08/27 00:28:35;;;;;;;4.45;0.80;;;17.50;99.90;;;;;;4976923;28;20042;-71
2022/08/27 00:31:01;;;;;;;6.20;0.70;;;17.50;99.90;;;;;;4980468;28;20049;-72
2022/08/27 00:33:27;;;;;;;3.50;0.43;;;17.50;99.90;;;;;;4978720;28;20487;-71
2022/08/27 00:35:53;;;;;;;6.07;1.25;;;17.50;99.90;;;;;;4979825;28;20050;-69
2022/08/27 00:38:21;;;;;;;3.35;0.63;;;17.50;99.90;;;;;;4980556;28;20038;-71
2022/08/27 00:40:47;;;;;;;2.58;0.60;;;17.50;99.90;;;;;;4976981;28;20033;-71
2022/08/27 00:43:19;;;;;;;3.22;0.70;;;17.50;99.90;;;;;;4980493;28;20045;-70
2022/08/27 00:45:45;;;;;;;3.72;0.68;;;17.40;99.90;;;;;;4978320;28;20041;-70
2022/08/27 00:48:14;;;;;;;5.07;0.70;;;17.30;99.90;;;;;;4979523;28;20027;-71
2022/08/27 00:50:46;;;;;;;3.85;0.60;;;17.30;99.90;;;;;;4981097;28;20031;-70
2022/08/27 00:53:15;;;;;;;3.60;0.80;;;17.20;99.90;;;;;;4981726;28;20034;-71
2022/08/27 00:56:09;;;;;;;2.35;0.60;;;17.20;99.90;;;;;;4981807;28;20034;-72
2022/08/27 00:58:38;;;;;;;5.38;0.73;;;17.10;99.90;;;;;;4992303;28;20026;-70
2022/08/27 01:01:07;;;;;;;2.15;0.60;;;17.00;99.90;;;;;;4995383;28;20046;-71
2022/08/27 01:03:33;;;;;;;2.20;0.90;;;17.00;99.90;;;;;;4977448;28;20100;-71
2022/08/27 01:06:01;;;;;;;4.88;0.75;;;16.90;99.90;;;;;;4979521;28;20475;-72
2022/08/27 01:08:32;;;;;;;2.22;0.68;;;16.80;99.90;;;;;;4979463;28;20117;-71
2022/08/27 01:11:00;;;;;;;1.58;0.40;;;16.80;99.90;;;;;;4979504;28;20030;-71
2022/08/27 01:13:30;;;;;;;1.52;0.50;;;16.80;99.90;;;;;;4990588;28;20093;-71
2022/08/27 01:15:57;;;;;;;8.90;0.80;;;16.70;99.90;;;;;;4991170;28;20037;-71
2022/08/27 01:18:25;;;;;;;2.92;0.80;;;16.70;99.90;;;;;;4986925;28;20085;-69
2022/08/27 01:21:08;;;;;;;1.48;0.40;;;16.60;99.90;;;;;;4980747;28;20031;-71
2022/08/27 01:23:49;;;;;;;3.60;0.68;;;16.60;99.90;;;;;;4980940;28;20414;-71
2022/08/27 01:26:16;;;;;;;2.97;0.98;;;16.50;99.90;;;;;;5001343;28;20073;-72
2022/08/27 01:28:43;;;;;;;4.85;0.73;;;16.50;99.90;;;;;;4979449;28;20041;-71
2022/08/27 01:31:11;;;;;;;6.95;0.73;;;16.50;99.90;;;;;;4976603;28;20025;-70
2022/08/27 01:33:37;;;;;;;1.70;0.60;;;16.50;99.90;;;;;;5023162;28;20052;-70
2022/08/27 01:36:04;;;;;;;2.38;0.80;;;16.50;99.90;;;;;;5022415;28;20042;-71
2022/08/27 01:38:31;;;;;;;4.20;0.90;;;16.40;99.90;;;;;;4989523;28;20057;-71
2022/08/27 01:40:58;;;;;;;5.85;0.73;;;16.40;99.90;;;;;;4980629;28;20081;-69
2022/08/27 01:43:23;;;;;;;6.03;1.35;;;16.30;99.90;;;;;;4979490;28;20108;-70
2022/08/27 01:45:51;;;;;;;4.43;0.80;;;16.30;99.90;;;;;;4978677;28;20438;-71
2022/08/27 01:48:19;;;;;;;2.97;0.70;;;16.30;99.90;;;;;;4974811;28;20065;-71
2022/08/27 01:50:46;;;;;;;1.42;0.63;;;16.30;99.90;;;;;;4976595;28;20034;-70
2022/08/27 01:53:16;;;;;;;8.10;0.82;;;16.20;99.90;;;;;;4979197;28;20054;-71
2022/08/27 01:55:43;;;;;;;1.75;0.52;;;16.20;99.90;;;;;;4977536;28;20039;-71
2022/08/27 01:58:10;;;;;;;7.95;1.52;;;16.20;99.90;;;;;;4983621;28;20050;-71
2022/08/27 02:00:40;;;;;;;1.70;0.77;;;16.20;99.90;;;;;;4988609;28;20503;-70
2022/08/27 02:03:07;;;;;;;5.15;0.68;;;16.20;99.90;;;;;;4980182;28;20042;-71
2022/08/27 02:05:34;;;;;;;4.57;1.15;;;16.20;99.90;;;;;;4977086;28;20040;-71
2022/08/27 02:07:59;;;;;;;3.20;1.00;;;16.20;99.90;;;;;;4979356;28;20069;-70
2022/08/27 02:10:29;;;;;;;3.58;0.60;;;16.20;99.90;;;;;;4982710;28;20069;-71
2022/08/27 02:12:55;;;;;;;4.45;0.60;;;16.30;99.90;;;;;;4983003;28;20057;-69
2022/08/27 02:15:21;;;;;;;3.30;0.93;;;16.30;99.90;;;;;;4986603;28;20525;-71
2022/08/27 02:17:46;;;;;;;4.18;0.80;;;16.30;99.90;;;;;;4977832;28;20117;-71
2022/08/27 02:20:13;;;;;;;3.55;0.68;;;16.30;99.90;;;;;;4979313;28;20125;-71
2022/08/27 02:22:40;;;;;;;3.08;1.38;;;16.30;99.90;;;;;;4975856;28;20118;-69
2022/08/27 02:25:07;;;;;;;4.65;0.60;;;16.30;99.90;;;;;;4981596;28;20478;-70
2022/08/27 02:27:33;;;;;;;4.00;0.70;;;16.30;99.90;;;;;;4979182;28;20058;-71
2022/08/27 02:29:59;;;;;;;2.28;1.08;;;16.30;99.90;;;;;;4975292;28;20062;-71
2022/08/27 02:32:24;;;;;;;4.63;0.95;;;16.30;99.90;;;;;;4978184;28;20101;-68
2022/08/27 02:34:50;;;;;;;2.03;1.20;;;16.30;99.90;;;;;;4976750;28;20038;-72
2022/08/27 02:37:15;;;;;;;4.53;0.50;;;16.30;99.90;;;;;;4977924;28;20030;-71
2022/08/27 02:39:41;;;;;;;4.95;1.00;;;16.20;99.90;;;;;;4976296;28;20459;-72
2022/08/27 02:42:07;;;;;;;3.65;0.73;;;16.20;99.90;;;;;;4974785;28;20042;-72
2022/08/27 02:44:34;;;;;;;1.48;0.63;;;16.10;99.90;;;;;;4978819;28;20100;-72
2022/08/27 02:47:01;;;;;;;2.78;0.95;;;16.10;99.90;;;;;;5006733;28;20023;-70
2022/08/27 02:49:28;;;;;;;3.28;0.60;;;16.10;99.90;;;;;;4979475;28;20398;-71
2022/08/27 02:51:55;;;;;;;3.42;0.80;;;16.00;99.90;;;;;;4977190;28;20041;-71
2022/08/27 02:54:22;;;;;;;4.03;1.30;;;16.00;99.90;;;;;;4979417;28;20483;-71
2022/08/27 02:56:48;;;;;;;4.50;0.75;;;15.90;99.90;;;;;;4975596;28;20630;-71
2022/08/27 02:59:13;;;;;;;2.83;0.88;;;15.90;99.90;;;;;;5012559;28;20137;-69
2022/08/27 03:01:39;;;;;;;3.63;0.93;;;15.90;99.90;;;;;;4976149;28;20035;-71
2022/08/27 03:04:05;;;;;;;4.15;1.25;;;15.80;99.90;;;;;;4978115;28;20398;-71
2022/08/27 03:06:30;;;;;;;3.42;0.80;;;15.80;99.90;;;;;;4979278;28;20038;-71
2022/08/27 03:08:56;;;;;;;5.55;1.40;;;15.80;99.90;;;;;;4988323;28;20040;-69
2022/08/27 03:11:22;;;;;;;6.28;1.15;;;15.70;99.90;;;;;;4981878;28;20058;-71
2022/08/27 03:13:48;;;;;;;2.08;0.60;;;15.70;99.90;;;;;;4984318;28;20041;-72
2022/08/27 03:16:14;;;;;;;4.18;0.63;;;15.70;99.90;;;;;;4986681;28;20497;-71
2022/08/27 03:18:39;;;;;;;4.07;0.70;;;15.70;99.90;;;;;;4978525;28;20045;-70
2022/08/27 03:21:07;;;;;;;4.32;1.15;;;15.60;99.90;;;;;;4977151;28;20038;-71
2022/08/27 03:23:33;;;;;;;3.22;1.00;;;15.60;99.90;;;;;;4979129;28;20039;-71
2022/08/27 03:26:02;;;;;;;4.95;0.88;;;15.60;99.90;;;;;;4986361;28;20042;-71
2022/08/27 03:28:31;;;;;;;5.32;0.85;;;15.50;99.90;;;;;;4979644;28;20034;-71
2022/08/27 03:31:00;;;;;;;6.13;1.00;;;15.50;99.90;;;;;;4977900;28;20045;-71
2022/08/27 03:33:31;;;;;;;1.80;0.75;;;15.50;99.90;;;;;;4974696;28;20034;-71
2022/08/27 03:35:57;;;;;;;5.40;1.00;;;15.40;99.90;;;;;;4977177;28;20046;-71
2022/08/27 03:38:23;;;;;;;4.90;0.70;;;15.40;99.90;;;;;;4974126;28;20298;-71
2022/08/27 03:40:49;;;;;;;6.15;0.70;;;15.40;99.90;;;;;;4975809;28;20137;-72
2022/08/27 03:43:16;;;;;;;4.85;0.90;;;15.30;99.90;;;;;;4982784;28;20113;-72
2022/08/27 03:45:42;;;;;;;5.28;0.93;;;15.30;99.90;;;;;;4979896;28;20429;-70
2022/08/27 03:48:09;;;;;;;2.03;1.00;;;15.30;99.90;;;;;;4980236;28;20096;-71
2022/08/27 03:50:38;;;;;;;7.88;1.10;;;15.30;99.90;;;;;;4972048;28;20031;-71
2022/08/27 03:53:03;;;;;;;2.95;1.17;;;15.30;99.90;;;;;;5005067;28;20045;-71
2022/08/27 03:55:29;;;;;;;5.47;1.17;;;15.30;99.90;;;;;;4972588;28;20038;-72
2022/08/27 03:57:55;;;;;;;6.72;0.98;;;15.20;99.90;;;;;;4981198;28;20043;-70
2022/08/27 04:00:23;;;;;;;2.22;1.30;;;15.20;99.90;;;;;;4985435;28;20043;-70
2022/08/27 04:02:49;;;;;;;1.90;0.77;;;15.20;99.90;;;;;;4980072;28;20086;-70
2022/08/27 04:05:15;;;;;;;3.95;1.33;;;15.10;99.90;;;;;;5008632;28;20792;-71
2022/08/27 04:07:42;;;;;;;3.13;0.93;;;15.10;99.90;;;;;;4974446;28;20035;-72
2022/08/27 04:10:10;;;;;;;3.17;0.68;;;15.00;99.90;;;;;;4974019;28;20031;-70
2022/08/27 04:12:36;;;;;;;3.00;0.85;;;15.00;99.90;;;;;;4974208;28;20031;-68
2022/08/27 04:15:03;;;;;;;1.58;0.57;;;15.00;99.90;;;;;;4970755;28;20138;-71
2022/08/27 04:17:30;;;;;;;4.80;0.95;;;15.00;99.90;;;;;;4977318;28;20038;-68
2022/08/27 04:19:55;;;;;;;2.80;0.93;;;15.00;99.90;;;;;;4977663;28;20442;-71
2022/08/27 04:22:22;;;;;;;4.10;1.05;;;14.90;99.90;;;;;;4974388;28;20038;-71
2022/08/27 04:24:48;;;;;;;2.10;0.65;;;14.90;99.90;;;;;;4976472;28;20039;-69
2022/08/27 04:27:15;;;;;;;2.20;0.80;;;14.90;99.90;;;;;;4978703;28;20182;-69
2022/08/27 04:29:41;;;;;;;7.00;1.00;;;14.90;99.90;;;;;;4976140;28;20035;-70
2022/08/27 04:32:07;;;;;;;4.53;0.70;;;14.90;99.90;;;;;;4989079;28;20048;-70
2022/08/27 04:34:35;;;;;;;1.27;0.70;;;14.80;99.90;;;;;;4979158;28;20606;-69
2022/08/27 04:37:02;;;;;;;2.88;1.08;;;14.80;99.90;;;;;;4984305;28;20042;-71
2022/08/27 04:39:29;;;;;;;1.92;0.70;;;14.80;99.90;;;;;;4981567;28;20019;-70
2022/08/27 04:41:57;;;;;;;3.08;0.80;;;14.80;99.90;;;;;;5017052;28;20130;-71
2022/08/27 04:44:24;;;;;;;5.78;0.90;;;14.80;99.90;;;;;;4980351;28;20082;-71
2022/08/27 04:46:55;;;;;;;7.55;1.27;;;14.80;99.90;;;;;;5007505;28;20045;-70
2022/08/27 04:49:21;;;;;;;3.42;0.85;;;14.80;99.90;;;;;;4983290;28;20480;-70
2022/08/27 04:51:47;;;;;;;6.30;1.20;;;14.80;99.90;;;;;;4983554;28;20046;-71
2022/08/27 04:54:13;;;;;;;3.80;0.70;;;14.80;99.90;;;;;;4980289;28;20027;-71
2022/08/27 04:56:39;;;;;;;2.15;0.88;;;14.80;99.90;;;;;;4979480;28;20041;-71
2022/08/27 04:59:08;;;;;;;5.95;0.90;;;14.80;99.90;;;;;;4978952;28;20086;-71
2022/08/27 05:01:35;;;;;;;4.32;0.88;;;14.70;99.90;;;;;;4980798;28;20495;-69
2022/08/27 05:04:01;;;;;;;5.72;1.10;;;14.70;99.90;;;;;;4976962;28;20518;-71
2022/08/27 05:06:27;;;;;;;8.85;0.98;;;14.80;99.90;;;;;;4991257;28;20041;-69
2022/08/27 05:08:54;;;;;;;3.95;1.10;;;14.70;99.90;;;;;;4982418;28;20426;-70
2022/08/27 05:11:21;;;;;;;4.25;0.65;;;14.80;99.90;;;;;;4980488;28;20084;-70
2022/08/27 05:13:47;;;;;;;2.22;1.13;;;14.80;99.90;;;;;;4977046;28;20039;-70
2022/08/27 05:16:18;;;;;;;7.63;1.67;;;14.80;99.90;;;;;;4979310;28;20090;-71
2022/08/27 05:18:44;;;;;;;3.50;0.80;;;14.80;99.90;;;;;;4976259;28;20071;-71
2022/08/27 05:21:24;;;;;;;6.13;1.30;;;14.80;99.90;;;;;;4978543;28;20041;-71
2022/08/27 05:23:51;;;;;;;3.70;1.70;;;14.80;99.90;;;;;;4975473;28;20051;-71
2022/08/27 05:26:17;;;;;;;6.80;1.60;;;14.80;99.90;;;;;;4982641;28;20066;-69
2022/08/27 05:28:43;;;;;;;3.05;1.40;;;14.90;99.90;;;;;;4978154;28;20030;-71
2022/08/27 05:31:11;;;;;;;4.68;1.73;;;15.00;99.90;;;;;;4976713;28;20037;-71
2022/08/27 05:33:40;;;;;;;8.07;2.50;;;15.00;99.90;;;;;;4975404;28;20039;-70
2022/08/27 05:36:13;;;;;;;9.23;2.40;;;15.10;99.90;;;;;;5011009;28;20050;-70
2022/08/27 05:38:38;;;;;;;8.73;3.15;;;15.10;99.90;;;;;;4977041;28;20053;-71
2022/08/27 05:41:10;;;;;;;7.60;2.33;;;15.20;99.90;;;;;;4977125;28;20491;-71
2022/08/27 05:43:37;;;;;;;8.05;3.22;;;15.30;99.90;;;;;;4976594;28;20042;-70
2022/08/27 05:46:08;;;;;;;7.97;2.53;;;15.40;99.90;;;;;;4977674;28;20041;-70
2022/08/27 05:48:35;;;;;;;5.68;2.15;;;15.50;99.90;;;;;;4976251;28;20050;-69
2022/08/27 05:51:14;;;;;;;4.75;1.90;;;15.50;99.90;;;;;;4976686;28;20031;-68
2022/08/27 05:53:40;;;;;;;4.25;1.50;;;15.60;99.90;;;;;;4982841;28;20065;-71
2022/08/27 05:56:17;;;;;;;6.63;1.88;;;15.70;99.90;;;;;;4983511;28;20062;-72
2022/08/27 06:01:30;;;;;;;2.80;1.35;;;15.80;99.90;;;;;;4981844;28;20041;-70
2022/08/27 06:03:56;;;;;;;7.38;2.25;;;15.90;99.90;;;;;;4973789;28;20045;-69
2022/08/27 06:06:22;;;;;;;4.95;1.63;;;15.90;99.90;;;;;;4985027;28;20053;-68
2022/08/27 06:08:49;;;;;;;6.55;1.70;;;16.00;99.90;;;;;;4977069;28;20045;-74
2022/08/27 06:11:18;;;;;;;6.70;1.85;;;16.00;99.90;;;;;;4977403;28;20062;-70
2022/08/27 06:13:44;;;;;;;7.43;1.60;;;16.10;99.90;;;;;;4978873;28;20034;-71
2022/08/27 06:16:15;;;;;;;5.95;1.88;;;16.20;99.90;;;;;;5009575;28;20509;-69
2022/08/27 06:18:42;;;;;;;5.22;1.45;;;16.20;99.90;;;;;;4977816;28;20046;-71
2022/08/27 06:21:09;;;;;;;2.92;1.40;;;16.30;99.90;;;;;;4982246;28;20043;-71
2022/08/27 06:23:35;;;;;;;5.63;1.45;;;16.30;99.90;;;;;;4983017;28;20038;-71
2022/08/27 06:26:04;;;;;;;4.00;1.25;;;16.40;99.90;;;;;;4986574;28;20079;-70
2022/08/27 06:28:30;;;;;;;2.00;0.90;;;16.50;99.90;;;;;;4979734;28;20053;-71
2022/08/27 06:31:28;;;;;;;4.30;1.00;;;16.50;99.90;;;;;;4989201;28;20038;-72
2022/08/27 06:33:58;;;;;;;4.20;1.42;;;16.60;99.90;;;;;;5012679;28;20039;-71
2022/08/27 06:36:25;;;;;;;5.72;1.02;;;16.70;99.90;;;;;;4986124;28;20038;-69
2022/08/27 06:38:50;;;;;;;4.28;0.93;;;16.80;99.90;;;;;;4981306;28;20045;-70
2022/08/27 06:41:19;;;;;;;5.47;1.50;;;16.80;99.90;;;;;;4979312;28;20125;-68
2022/08/27 06:43:45;;;;;;;3.30;1.00;;;16.80;99.90;;;;;;4974667;28;20566;-71
2022/08/27 06:46:14;;;;;;;5.00;1.45;;;16.80;99.90;;;;;;4977051;28;20392;-72
2022/08/27 06:48:43;;;;;;;4.32;1.40;;;16.90;99.90;;;;;;4973711;28;20042;-70
2022/08/27 06:51:13;;;;;;;1.52;0.63;;;17.00;99.90;;;;;;4977035;28;20039;-71
2022/08/27 06:53:39;;;;;;;6.07;1.30;;;17.50;99.90;;;;;;4975288;28;20046;-70
2022/08/27 06:56:05;;;;;;;2.55;1.17;;;17.90;99.90;;;;;;4976069;28;20500;-71
2022/08/27 06:58:33;;;;;;;5.45;1.42;;;18.00;99.90;;;;;;5007373;28;20077;-69
2022/08/27 07:00:59;;;;;;;3.58;1.33;;;17.90;99.90;;;;;;4982336;28;20042;-70
2022/08/27 07:03:24;;;;;;;5.63;1.23;;;17.80;99.90;;;;;;4973274;28;20415;-70
2022/08/27 07:05:50;;;;;;;4.15;1.23;;;17.80;99.90;;;;;;4976415;28;20643;-71
2022/08/27 07:08:15;;;;;;;3.25;0.98;;;17.80;99.90;;;;;;4982719;28;20045;-71
2022/08/27 07:10:42;;;;;;;3.88;1.55;;;17.70;99.90;;;;;;4992653;28;20112;-69
2022/08/27 07:13:07;;;;;;;5.38;1.30;;;17.60;99.90;;;;;;4984924;28;20101;-71
2022/08/27 07:15:37;;;;;;;6.30;1.25;;;17.60;99.90;;;;;;5007403;28;20050;-70
2022/08/27 07:18:02;;;;;;;4.35;1.02;;;17.70;99.90;;;;;;4982881;28;20038;-71
2022/08/27 07:20:28;;;;;;;4.70;0.93;;;17.90;99.90;;;;;;4986110;28;20101;-70
2022/08/27 07:22:57;;;;;;;3.58;0.80;;;18.10;99.90;;;;;;4975335;28;20048;-70
2022/08/27 07:25:23;;;;;;;2.30;0.85;;;18.20;99.90;;;;;;4982376;28;20038;-70
2022/08/27 07:27:49;;;;;;;1.67;0.50;;;18.40;99.90;;;;;;4976497;28;20045;-71
2022/08/27 07:30:16;;;;;;;5.03;0.80;;;18.50;99.90;;;;;;4976707;28;20046;-70
2022/08/27 07:32:44;;;;;;;4.00;0.70;;;18.70;99.90;;;;;;4970707;28;20137;-69
2022/08/27 07:35:10;;;;;;;2.45;0.63;;;18.80;99.90;;;;;;4974598;28;20069;-70
2022/08/27 07:37:36;;;;;;;3.17;0.77;;;18.90;99.90;;;;;;4976849;28;20511;-70
2022/08/27 07:40:11;;;;;;;3.17;0.77;;;19.00;99.90;;;;;;4980109;28;20478;-70
2022/08/27 07:45:21;;;;;;;4.65;0.60;;;19.10;99.90;;;;;;4977469;28;20033;-70
2022/08/27 07:47:47;;;;;;;2.22;0.50;;;19.20;99.90;;;;;;5004305;28;20499;-69
2022/08/27 07:50:13;;;;;;;4.15;0.70;;;19.30;99.90;;;;;;4975640;28;20042;-69
2022/08/27 07:52:41;;;;;;;1.75;0.38;;;19.40;99.90;;;;;;4972921;28;20038;-70
2022/08/27 07:55:07;;;;;;;1.73;0.40;;;19.50;99.90;;;;;;4975136;28;20039;-68
2022/08/27 07:57:32;;;;;;;1.55;0.50;;;19.70;99.90;;;;;;4978553;28;20396;-70
2022/08/27 07:59:58;;;;;;;1.00;0.30;;;19.80;99.90;;;;;;4973609;28;20041;-70
2022/08/27 08:02:23;;;;;;;3.83;0.55;;;19.90;99.90;;;;;;4975902;28;20503;-69
2022/08/27 08:04:50;;;;;;;2.28;0.70;;;19.90;99.90;;;;;;4975323;28;20968;-70
2022/08/27 08:07:15;;;;;;;2.50;0.60;;;20.10;99.90;;;;;;4976892;28;20106;-71
2022/08/27 08:09:41;;;;;;;0.80;0.40;;;20.20;99.90;;;;;;4983418;28;20121;-71
2022/08/27 08:12:07;;;;;;;2.50;0.63;;;20.20;99.90;;;;;;4977374;28;20031;-70
2022/08/27 08:14:32;;;;;;;3.33;0.50;;;20.40;99.90;;;;;;4977056;28;20035;-69
2022/08/27 08:17:00;;;;;;;2.35;0.60;;;20.60;99.90;;;;;;4978061;28;20045;-69
2022/08/27 08:19:26;;;;;;;2.65;0.65;;;20.70;99.90;;;;;;4981152;28;20058;-69
2022/08/27 08:21:52;;;;;;;3.85;0.65;;;20.90;99.90;;;;;;4979509;28;20038;-71
2022/08/27 08:24:18;;;;;;;3.08;0.75;;;20.90;99.90;;;;;;4979719;28;20057;-70
2022/08/27 08:26:44;;;;;;;7.18;1.08;;;20.90;99.90;;;;;;4985422;28;20043;-70
2022/08/27 08:29:11;;;;;;;1.50;0.40;;;20.80;99.90;;;;;;4980354;28;20031;-72
2022/08/27 08:31:36;;;;;;;3.20;0.60;;;20.70;99.90;;;;;;4978183;28;20038;-70
2022/08/27 08:34:02;;;;;;;4.15;0.73;;;20.60;99.90;;;;;;4976111;28;20042;-71
2022/08/27 08:36:28;;;;;;;4.75;0.57;;;20.50;99.90;;;;;;4979982;28;20567;-71
2022/08/27 08:38:53;;;;;;;4.25;0.50;;;20.40;99.90;;;;;;4978660;28;20061;-71
2022/08/27 08:41:48;;;;;;;3.50;0.60;;;20.30;99.90;;;;;;4978500;28;20031;-68
2022/08/27 08:44:35;;;;;;;9.23;1.10;;;20.30;99.90;;;;;;4979525;28;20456;-68
2022/08/27 08:47:03;;;;;;;1.27;0.47;;;20.30;99.90;;;;;;4980813;28;20030;-71
2022/08/27 08:49:37;;;;;;;3.42;0.50;;;20.10;99.90;;;;;;4979679;28;20046;-72
2022/08/27 08:52:28;;;;;;;4.03;0.88;;;20.00;99.90;;;;;;4977255;28;20043;-72
2022/08/27 08:55:07;;;;;;;1.25;0.47;;;19.90;99.90;;;;;;4980521;28;20038;-72
2022/08/27 08:58:02;;;;;;;2.47;0.50;;;19.80;99.90;;;;;;4979990;28;20037;-70
2022/08/27 09:00:28;;;;;;;2.88;1.02;;;19.70;99.90;;;;;;4972983;28;20783;-73
2022/08/27 09:02:54;;;;;;;3.55;0.40;;;19.60;99.90;;;;;;4977416;28;20038;-69
2022/08/27 09:05:20;;;;;;;1.38;0.40;;;19.50;99.90;;;;;;5012204;28;20498;-69
2022/08/27 09:08:12;;;;;;;2.78;0.60;;;19.50;99.90;;;;;;4977464;28;20509;-71
2022/08/27 09:10:56;;;;;;;4.00;0.30;;;19.40;99.90;;;;;;4980581;28;20060;-71
2022/08/27 09:13:31;;;;;;;4.18;0.47;;;19.40;99.90;;;;;;4986378;28;20050;-71
2022/08/27 09:16:00;;;;;;;1.27;0.40;;;19.30;99.90;;;;;;4983876;28;20050;-72
2022/08/27 09:18:26;;;;;;;1.98;0.35;;;19.40;99.90;;;;;;4978862;28;20034;-71
2022/08/27 09:21:13;;;;;;;6.57;0.40;;;19.30;99.90;;;;;;5008739;28;20037;-71
2022/08/27 09:24:10;;;;;;;1.98;0.22;;;19.40;99.90;;;;;;4978728;28;20034;-71
2022/08/27 09:26:40;;;;;;;2.40;0.65;;;19.40;99.90;;;;;;4984927;28;20041;-70
2022/08/27 09:29:15;;;;;;;1.17;0.30;;;19.50;99.90;;;;;;4975206;28;20031;-70
2022/08/27 09:31:44;;;;;;;3.72;0.50;;;19.60;99.90;;;;;;4978253;28;20049;-71
2022/08/27 09:34:10;;;;;;;1.45;0.30;;;19.70;99.90;;;;;;4978922;28;20054;-69
2022/08/27 09:37:00;;;;;;;1.25;0.45;;;19.80;99.90;;;;;;4973863;28;20039;-69
2022/08/27 09:39:59;;;;;;;2.45;0.50;;;19.90;99.90;;;;;;4977931;28;20042;-71
2022/08/27 09:42:39;;;;;;;2.10;0.50;;;20.10;99.90;;;;;;4977810;28;20034;-70
2022/08/27 09:45:14;;;;;;;3.70;0.40;;;20.20;99.90;;;;;;4983783;28;20042;-69
2022/08/27 09:47:43;;;;;;;2.85;0.70;;;20.30;99.90;;;;;;4982061;28;20042;-69
2022/08/27 09:50:09;;;;;;;2.55;0.40;;;20.40;99.90;;;;;;4983801;28;20039;-70
2022/08/27 09:52:45;;;;;;;2.00;0.52;;;20.40;99.90;;;;;;4986978;28;20034;-68
2022/08/27 09:55:11;;;;;;;3.42;0.47;;;20.40;99.90;;;;;;4985149;28;20376;-71
2022/08/27 09:57:41;;;;;;;4.85;0.70;;;20.40;99.90;;;;;;4985407;28;20041;-70
2022/08/27 10:00:14;;;;;;;1.55;0.30;;;20.30;99.90;;;;;;4982111;28;20053;-70
2022/08/27 10:02:50;;;;;;;3.28;0.40;;;20.30;99.90;;;;;;4979393;28;20034;-71
2022/08/27 10:05:30;;;;;;;2.70;0.40;;;20.40;99.90;;;;;;4985200;28;20078;-70
2022/08/27 10:08:03;;;;;;;3.05;0.50;;;20.50;99.90;;;;;;4983255;28;20539;-71
2022/08/27 10:10:59;;;;;;;1.15;0.40;;;20.60;99.90;;;;;;4985051;28;20904;-70
2022/08/27 10:13:48;;;;;;;2.22;0.70;;;20.60;99.90;;;;;;4976066;28;20051;-71
2022/08/27 10:16:51;;;;;;;11.50;0.77;;;20.60;99.90;;;;;;4976775;28;20586;-69
2022/08/27 10:19:16;;;;;;;2.35;0.52;;;20.60;99.90;;;;;;4996865;28;20675;-71
2022/08/27 10:21:47;;;;;;;2.03;0.60;;;20.60;99.90;;;;;;4975843;28;20042;-71
2022/08/27 10:24:29;;;;;;;2.53;0.32;;;20.60;99.90;;;;;;4975619;28;20580;-69
2022/08/27 10:26:54;;;;;;;1.23;0.38;;;20.70;99.90;;;;;;4981065;28;20055;-70
2022/08/27 10:29:41;;;;;;;3.47;0.60;;;20.80;99.90;;;;;;5011871;28;20042;-70
2022/08/27 10:32:19;;;;;;;3.88;0.50;;;20.90;99.90;;;;;;4994534;28;20042;-70
2022/08/27 10:35:03;;;;;;;4.20;0.50;;;21.00;99.90;;;;;;4977130;28;20046;-70
2022/08/27 10:37:52;;;;;;;4.70;0.60;;;21.20;99.90;;;;;;5007877;28;20038;-71
2022/08/27 10:40:30;;;;;;;6.22;0.73;;;21.20;99.70;;;;;;4976973;28;20039;-70
2022/08/27 10:43:26;;;;;;;3.83;0.50;;;21.30;99.20;;;;;;4974071;28;20046;-70
2022/08/27 10:46:20;;;;;;;2.58;0.60;;;21.40;99.20;;;;;;4976770;28;20030;-68
2022/08/27 10:49:02;;;;;;;1.73;0.45;;;21.60;99.50;;;;;;5012104;28;20057;-71
2022/08/27 10:51:41;;;;;;;4.15;0.45;;;21.60;99.50;;;;;;4974431;28;20066;-70
2022/08/27 10:54:10;;;;;;;2.70;0.50;;;21.70;99.60;;;;;;4976274;28;20066;-68
2022/08/27 10:56:47;;;;;;;2.90;0.52;;;21.70;99.40;;;;;;4973377;28;20451;-68
2022/08/27 10:59:54;;;;;;;2.10;0.60;;;21.60;99.60;;;;;;4977190;28;20053;-70
2022/08/27 11:02:38;;;;;;;1.95;0.40;;;21.60;98.80;;;;;;4977968;28;20031;-69
2022/08/27 11:05:21;;;;;;;2.80;0.32;;;21.70;98.30;;;;;;4979909;28;20556;-70
2022/08/27 11:07:55;;;;;;;4.07;0.65;;;21.70;98.40;;;;;;4980779;28;20121;-71
2022/08/27 11:10:42;;;;;;;4.80;0.75;;;21.70;98.40;;;;;;4973013;28;20054;-69
2022/08/27 11:13:15;;;;;;;1.08;0.40;;;21.70;97.50;;;;;;4975154;28;20038;-68
2022/08/27 11:15:45;;;;;;;0.82;0.40;;;21.60;96.80;;;;;;4973628;28;20100;-70
2022/08/27 11:18:19;;;;;;;1.08;0.43;;;21.60;96.80;;;;;;4975660;28;20046;-70
2022/08/27 11:20:48;;;;;;;3.30;0.85;;;21.70;97.30;;;;;;4973499;28;20058;-70
2022/08/27 11:23:23;;;;;;;2.38;0.50;;;21.70;97.50;;;;;;4974784;28;20170;-69
2022/08/27 11:25:58;;;;;;;2.10;0.30;;;21.80;97.40;;;;;;4984554;28;20037;-71
2022/08/27 11:28:38;;;;;;;1.33;0.22;;;21.90;97.00;;;;;;4977579;28;20038;-69
2022/08/27 11:31:08;;;;;;;1.45;0.38;;;21.90;96.90;;;;;;4976696;28;20038;-70
2022/08/27 11:33:40;;;;;;;;;;;21.90;97.10;;;;;;4977138;28;20041;-69
2022/08/27 11:36:47;;;;;;;6.10;0.70;;;21.90;97.00;;;;;;4976947;28;19914;-70
2022/08/27 11:39:35;;;;;;;3.83;0.70;;;21.90;97.10;;;;;;4972951;28;20050;-70
2022/08/27 11:42:34;;;;;;;5.57;0.65;;;22.00;96.20;;;;;;4976507;28;20073;-70
2022/08/27 11:45:14;;;;;;;2.95;0.30;;;22.00;96.10;;;;;;4971958;28;20042;-70
2022/08/27 11:47:49;;;;;;;0.88;0.22;;;22.10;96.30;;;;;;4976784;28;20701;-69
2022/08/27 11:50:18;;;;;;;1.48;0.20;;;22.20;96.20;;;;;;4976635;28;20038;-68
2022/08/27 11:53:04;;;;;;;2.13;0.43;;;22.40;96.00;;;;;;4972690;28;20045;-70
2022/08/27 11:55:38;;;;;;;0.60;0.10;;;22.30;95.80;;;;;;4977277;28;20100;-69
2022/08/27 11:58:09;;;;;;;4.15;0.43;;;22.30;95.80;;;;;;4973863;28;20042;-69
2022/08/27 12:00:40;;;;;;;2.05;0.22;;;22.40;95.90;;;;;;4977271;28;20080;-69
2022/08/27 12:03:21;;;;;;;2.03;0.30;;;22.40;96.10;;;;;;4973271;28;20057;-69
2022/08/27 12:05:52;;;;;;;1.40;0.22;;;22.30;95.70;;;;;;4981612;28;20034;-68
2022/08/27 12:08:21;;;;;;;2.83;0.43;;;22.40;95.40;;;;;;4984045;28;20065;-68
2022/08/27 12:11:08;;;;;;;4.88;0.70;;;22.40;95.80;;;;;;4979301;28;20038;-71
2022/08/27 12:13:48;;;;;;;3.83;0.73;;;22.50;95.60;;;;;;4995617;28;20096;-70
2022/08/27 12:16:20;;;;;;;0.88;0.30;;;22.60;95.30;;;;;;4976935;28;20035;-70
2022/08/27 12:18:57;;;;;;;1.70;0.50;;;22.60;94.80;;;;;;4973849;28;20529;-71
2022/08/27 12:22:04;;;;;;;1.38;0.50;;;22.60;94.50;;;;;;4984458;28;20038;-70
2022/08/27 12:24:56;;;;;;;2.47;0.20;;;22.70;94.00;;;;;;4963577;28;20047;-70
2022/08/27 12:27:24;;;;;;;1.27;0.30;;;22.70;93.40;;;;;;4999155;28;20091;-71
2022/08/27 12:29:59;;;;;;;5.47;0.80;;;22.70;93.70;;;;;;4974203;28;20929;-69
2022/08/27 12:32:37;;;;;;;3.95;0.75;;;22.70;94.00;;;;;;4972426;28;20045;-71
2022/08/27 12:35:22;;;;;;;2.28;0.43;;;22.80;93.30;;;;;;4976611;28;20043;-70
2022/08/27 12:37:53;;;;;;;1.10;0.40;;;22.70;93.70;;;;;;4975269;28;20027;-68
2022/08/27 12:40:22;;;;;;;2.15;0.20;;;22.70;93.70;;;;;;4983469;28;20026;-71
2022/08/27 12:42:48;;;;;;;8.23;0.93;;;22.70;93.70;;;;;;4979171;28;20039;-70
2022/08/27 12:45:19;;;;;;;2.97;0.60;;;22.70;93.70;;;;;;4973647;28;20403;-70
2022/08/27 12:47:45;;;;;;;4.15;0.57;;;22.70;93.70;;;;;;5006181;28;20035;-70
2022/08/27 12:50:11;;;;;;;1.90;0.30;;;22.60;93.70;;;;;;4974228;28;21129;-72
2022/08/27 12:52:46;;;;;;;1.83;0.80;;;22.70;93.40;;;;;;4975067;28;20952;-72
2022/08/27 12:55:34;;;;;;;4.78;0.73;;;22.80;92.90;;;;;;4976120;28;20084;-72
2022/08/27 12:58:15;;;;;;;1.63;0.30;;;22.90;93.20;;;;;;4975807;28;20038;-71
2022/08/27 13:01:04;;;;;;;2.08;0.40;;;22.90;93.30;;;;;;4980283;28;20027;-72
2022/08/27 13:03:41;;;;;;;7.22;0.77;;;23.10;92.40;;;;;;4973748;28;20038;-72
2022/08/27 13:06:16;;;;;;;5.00;0.73;;;23.00;92.50;;;;;;5012630;28;20109;-72
2022/08/27 13:08:41;;;;;;;2.05;0.32;;;22.90;92.70;;;;;;4975671;28;20394;-72
2022/08/27 13:11:20;;;;;;;1.42;0.40;;;22.90;92.60;;;;;;4982930;28;20042;-72
2022/08/27 13:13:47;;;;;;;1.90;0.30;;;22.90;93.20;;;;;;4978694;28;20122;-72